Genoa, Arkansas
Current Conditions -  °F | °C
As of 8:31 AM on Sunday 23 Nov 2014 (Local Time) from KTXK Reporting Station
Light Rain Light Rain  
Wind Chill: 16°   Ceiling: 400
Heat Index: 16°   Visibility: 4mi
Dew Point: 16°   Wind: 3mph
Humidity: 100%   Direction: 210°SSW
Pressure: 29.58"   Gusts: NA
Location:  33.38°N, 93.91°W
Report Text: KTXK 231431Z 21003KT 4SM -RA BR BKN004 BKN025 OVC090 16/16 A2958 RMK AO2 P0002 T01610161 $
Loading
Personal Weather Stations






























Interactive Weather Map New forecast layout! Learn more

10-Day Weather Forecast

Advertisements
Track Severe Weather on mobile